Time;durP1;ratioP1;P1;durP2;ratioP2;P2;SDS_P1;SDS_P2;PMS_P1;PMS_P2;Temp;Humidity;BMP_temperature;BMP_pressure;BME280_temperature;BME280_humidity;BME280_pressure;Samples;Min_cycle;Max_cycle;Signal;HPM_P1;HPM_P2
2023/06/26 00:01:59;;;;;;;8.30;6.40;;;27.60;77.50;;;;;;5012620;28;20052;-60
2023/06/26 00:04:25;;;;;;;8.00;6.05;;;27.60;77.50;;;;;;5011982;28;20069;-67
2023/06/26 00:06:51;;;;;;;7.78;6.45;;;27.40;77.20;;;;;;5008983;28;20124;-67
2023/06/26 00:09:17;;;;;;;8.35;6.82;;;27.40;77.30;;;;;;5010093;28;20034;-67
2023/06/26 00:11:42;;;;;;;9.55;6.65;;;27.50;77.50;;;;;;5011337;28;20071;-67
2023/06/26 00:14:08;;;;;;;9.10;7.05;;;27.30;77.30;;;;;;5008847;28;20045;-67
2023/06/26 00:16:34;;;;;;;8.55;6.88;;;27.20;77.20;;;;;;5012998;28;20050;-68
2023/06/26 00:19:00;;;;;;;8.02;6.28;;;27.30;77.30;;;;;;5007779;28;20038;-67
2023/06/26 00:21:25;;;;;;;7.60;6.28;;;27.50;77.50;;;;;;5012358;28;20042;-67
2023/06/26 00:23:51;;;;;;;8.85;6.43;;;27.20;77.30;;;;;;5006354;28;20429;-64
2023/06/26 00:26:17;;;;;;;8.50;6.45;;;27.20;77.50;;;;;;5008451;28;20061;-60
2023/06/26 00:28:43;;;;;;;8.13;6.63;;;27.60;77.60;;;;;;5011540;28;20053;-64
2023/06/26 00:31:08;;;;;;;8.40;6.72;;;27.40;77.60;;;;;;5008061;28;20049;-67
2023/06/26 00:33:34;;;;;;;7.97;6.43;;;27.40;77.70;;;;;;5009889;28;20061;-63
2023/06/26 00:36:00;;;;;;;8.77;6.32;;;27.10;77.40;;;;;;5012879;28;20484;-62
2023/06/26 00:38:26;;;;;;;7.65;6.38;;;27.30;77.40;;;;;;5011959;28;20045;-61
2023/06/26 00:40:51;;;;;;;8.05;6.65;;;27.60;77.70;;;;;;5004992;28;20078;-66
2023/06/26 00:43:17;;;;;;;7.70;6.18;;;27.50;77.60;;;;;;5012792;28;20206;-64
2023/06/26 00:45:43;;;;;;;7.82;6.28;;;27.50;77.90;;;;;;5014662;28;20042;-60
2023/06/26 00:48:11;;;;;;;8.32;6.65;;;27.50;77.70;;;;;;5015621;28;20050;-62
2023/06/26 00:50:37;;;;;;;9.25;6.55;;;27.50;78.00;;;;;;5011169;28;20054;-67
2023/06/26 00:53:03;;;;;;;8.98;7.07;;;27.30;77.40;;;;;;5011883;28;20111;-68
2023/06/26 00:55:29;;;;;;;8.13;6.18;;;27.20;77.60;;;;;;5015058;28;20108;-67
2023/06/26 00:57:55;;;;;;;10.15;7.10;;;27.50;77.80;;;;;;4996833;28;20088;-67
2023/06/26 01:00:21;;;;;;;7.78;6.57;;;27.60;77.90;;;;;;5009616;28;20081;-67
2023/06/26 01:02:47;;;;;;;8.00;6.57;;;27.30;77.90;;;;;;5016400;28;20048;-67
2023/06/26 01:05:20;;;;;;;7.95;6.63;;;27.30;77.70;;;;;;5014822;28;20480;-68
2023/06/26 01:07:49;;;;;;;8.50;6.20;;;27.30;77.90;;;;;;5014745;28;20060;-63
2023/06/26 01:10:15;;;;;;;8.32;7.20;;;27.30;77.90;;;;;;5011844;28;20046;-66
2023/06/26 01:12:40;;;;;;;8.32;7.35;;;27.20;77.70;;;;;;5013294;28;20046;-64
2023/06/26 01:15:07;;;;;;;8.50;7.10;;;27.10;77.70;;;;;;5000583;28;20077;-61
2023/06/26 01:17:32;;;;;;;8.73;6.82;;;27.40;77.50;;;;;;5013562;28;20340;-68
2023/06/26 01:19:59;;;;;;;7.82;6.93;;;27.20;77.90;;;;;;5014469;28;20049;-68
2023/06/26 01:22:44;;;;;;;8.30;6.75;;;27.40;78.10;;;;;;4995557;28;20065;-68
2023/06/26 01:25:28;;;;;;;9.77;7.18;;;27.20;78.40;;;;;;5007069;28;20034;-67
2023/06/26 01:27:54;;;;;;;8.45;6.88;;;27.30;78.30;;;;;;5013589;28;20049;-61
2023/06/26 01:30:20;;;;;;;8.43;7.28;;;27.30;77.80;;;;;;4995129;28;20122;-66
2023/06/26 01:32:46;;;;;;;8.77;7.68;;;27.10;77.50;;;;;;5008341;28;20050;-67
2023/06/26 01:35:12;;;;;;;8.60;7.68;;;27.10;77.80;;;;;;5015830;28;20045;-67
2023/06/26 01:37:37;;;;;;;8.70;7.45;;;27.40;78.10;;;;;;5010845;28;20125;-67
2023/06/26 01:40:06;;;;;;;10.20;7.25;;;27.30;77.90;;;;;;5014307;28;20129;-67
2023/06/26 01:42:33;;;;;;;8.43;7.22;;;27.20;77.20;;;;;;5013424;28;20056;-68
2023/06/26 01:45:02;;;;;;;8.27;7.25;;;27.20;78.10;;;;;;5014293;28;20109;-67
2023/06/26 01:47:27;;;;;;;8.35;7.00;;;27.30;78.20;;;;;;5008325;28;20053;-67
2023/06/26 01:50:05;;;;;;;8.77;6.95;;;27.20;77.80;;;;;;4995775;28;20038;-68
2023/06/26 01:52:40;;;;;;;7.95;6.72;;;27.00;78.10;;;;;;5011789;28;20045;-68
2023/06/26 01:55:14;;;;;;;8.93;7.40;;;27.40;78.60;;;;;;5013506;28;20045;-67
2023/06/26 01:57:39;;;;;;;10.20;7.75;;;27.40;76.90;;;;;;5015031;28;20046;-67
2023/06/26 02:00:09;;;;;;;8.68;7.40;;;27.30;78.00;;;;;;5011990;28;20121;-66
2023/06/26 02:02:35;;;;;;;8.32;7.05;;;27.30;77.60;;;;;;5009249;28;20491;-67
2023/06/26 02:05:01;;;;;;;8.85;7.63;;;27.30;77.80;;;;;;5002719;28;20050;-67
2023/06/26 02:07:27;;;;;;;9.20;7.85;;;27.00;77.60;;;;;;5014214;28;20042;-67
2023/06/26 02:09:53;;;;;;;9.70;8.20;;;27.20;77.80;;;;;;5012023;28;20045;-67
2023/06/26 02:12:19;;;;;;;9.15;8.02;;;27.20;77.80;;;;;;5011905;28;20049;-67
2023/06/26 02:14:45;;;;;;;10.45;7.85;;;27.30;77.90;;;;;;5014214;28;20045;-67
2023/06/26 02:17:11;;;;;;;9.82;7.90;;;27.20;77.70;;;;;;5012932;28;20468;-67
2023/06/26 02:19:36;;;;;;;8.80;7.10;;;27.00;77.70;;;;;;5012699;28;20042;-68
2023/06/26 02:22:03;;;;;;;8.93;7.55;;;27.20;77.60;;;;;;5008006;28;20373;-67
2023/06/26 02:24:30;;;;;;;9.73;7.50;;;27.10;77.70;;;;;;5010649;28;20088;-60
2023/06/26 02:26:57;;;;;;;9.95;7.88;;;27.30;78.10;;;;;;5013364;28;20038;-62
2023/06/26 02:29:23;;;;;;;10.20;8.45;;;27.20;78.00;;;;;;5011543;28;20046;-66
2023/06/26 02:31:49;;;;;;;8.32;7.43;;;27.10;77.80;;;;;;5011022;28;20048;-67
2023/06/26 02:34:15;;;;;;;11.18;8.30;;;27.30;77.90;;;;;;5009948;28;20053;-67
2023/06/26 02:36:41;;;;;;;10.63;8.18;;;27.20;78.00;;;;;;5013464;28;20120;-67
2023/06/26 02:39:07;;;;;;;9.48;8.32;;;27.20;77.70;;;;;;5024595;28;20169;-67
2023/06/26 02:41:32;;;;;;;9.38;8.20;;;27.10;77.80;;;;;;5011092;28;20042;-67
2023/06/26 02:43:58;;;;;;;9.43;8.30;;;26.90;77.90;;;;;;5011809;28;20042;-68
2023/06/26 02:46:24;;;;;;;9.27;7.57;;;27.30;78.30;;;;;;5012112;28;20053;-67
2023/06/26 02:48:49;;;;;;;9.35;7.75;;;26.90;78.00;;;;;;5013308;28;20054;-68
2023/06/26 02:51:15;;;;;;;9.43;8.43;;;27.20;78.20;;;;;;5014045;28;20060;-67
2023/06/26 02:53:41;;;;;;;9.65;8.65;;;27.20;78.20;;;;;;5009535;28;20407;-67
2023/06/26 02:56:07;;;;;;;8.95;7.68;;;27.10;78.60;;;;;;5008930;28;20117;-60
2023/06/26 02:58:33;;;;;;;10.55;8.82;;;27.00;78.10;;;;;;5012110;28;20452;-61
2023/06/26 03:00:58;;;;;;;10.73;7.95;;;27.10;78.20;;;;;;5013878;28;20503;-64
2023/06/26 03:03:24;;;;;;;9.95;8.23;;;27.10;78.30;;;;;;5009197;28;20160;-67
2023/06/26 03:05:50;;;;;;;10.05;9.00;;;27.20;78.30;;;;;;5013566;28;20092;-67
2023/06/26 03:08:16;;;;;;;10.45;7.57;;;27.00;78.10;;;;;;5012362;28;20052;-67
2023/06/26 03:10:42;;;;;;;9.90;7.65;;;27.20;78.30;;;;;;5013048;28;20046;-64
2023/06/26 03:13:07;;;;;;;10.05;8.27;;;27.00;78.20;;;;;;5000588;28;20405;-61
2023/06/26 03:15:33;;;;;;;9.43;8.10;;;27.00;78.20;;;;;;5010797;28;20097;-67
2023/06/26 03:17:59;;;;;;;9.63;7.85;;;27.10;78.20;;;;;;5011928;28;20445;-67
2023/06/26 03:20:25;;;;;;;9.55;8.38;;;26.80;78.10;;;;;;5013826;28;20401;-67
2023/06/26 03:22:51;;;;;;;9.02;7.78;;;26.90;78.10;;;;;;5012578;28;20124;-67
2023/06/26 03:25:16;;;;;;;9.77;8.25;;;27.10;78.30;;;;;;5005951;28;20056;-64
2023/06/26 03:27:42;;;;;;;9.13;8.23;;;27.00;78.30;;;;;;5013608;28;20104;-61
2023/06/26 03:30:09;;;;;;;8.57;7.32;;;27.10;78.40;;;;;;5008159;28;20046;-62
2023/06/26 03:32:34;;;;;;;9.55;8.27;;;26.90;77.80;;;;;;5013649;28;20144;-62
2023/06/26 03:35:03;;;;;;;9.35;7.97;;;27.20;78.40;;;;;;5008991;28;20116;-66
2023/06/26 03:37:28;;;;;;;9.63;8.48;;;27.10;78.50;;;;;;5012635;28;20500;-61
2023/06/26 03:39:54;;;;;;;9.52;8.52;;;27.10;78.40;;;;;;5010798;28;20125;-60
2023/06/26 03:42:20;;;;;;;9.40;7.85;;;27.20;78.40;;;;;;5012961;28;20404;-64
2023/06/26 03:44:46;;;;;;;8.60;7.55;;;27.00;78.30;;;;;;5006803;28;21613;-68
2023/06/26 03:47:11;;;;;;;11.52;7.75;;;27.20;78.40;;;;;;5011314;28;20046;-67
2023/06/26 03:49:37;;;;;;;9.43;8.32;;;27.40;78.50;;;;;;5009878;28;20049;-67
2023/06/26 03:52:03;;;;;;;8.90;7.93;;;27.10;78.40;;;;;;5012881;28;20151;-67
2023/06/26 03:54:29;;;;;;;10.48;8.25;;;26.80;77.90;;;;;;5010877;28;20046;-61
2023/06/26 03:56:54;;;;;;;9.10;7.68;;;27.10;78.30;;;;;;5010459;28;20053;-61
2023/06/26 03:59:20;;;;;;;10.43;7.65;;;27.30;78.30;;;;;;5012065;28;20052;-66
2023/06/26 04:01:46;;;;;;;9.60;8.00;;;27.20;78.20;;;;;;5011291;28;20042;-62
2023/06/26 04:04:12;;;;;;;10.10;8.90;;;27.10;78.20;;;;;;5001249;28;20050;-66
2023/06/26 04:06:37;;;;;;;8.90;7.93;;;27.20;78.30;;;;;;5008117;28;20050;-66
2023/06/26 04:09:04;;;;;;;9.85;7.97;;;27.20;78.30;;;;;;5011958;28;20078;-66
2023/06/26 04:11:30;;;;;;;9.77;7.85;;;27.00;78.20;;;;;;5009967;28;20060;-66
2023/06/26 04:13:56;;;;;;;9.80;7.95;;;27.30;78.40;;;;;;5011247;28;20050;-63
2023/06/26 04:16:25;;;;;;;8.90;7.55;;;27.10;78.10;;;;;;5009780;28;20492;-61
2023/06/26 04:18:52;;;;;;;9.00;7.85;;;27.50;78.50;;;;;;5010554;28;20054;-60
2023/06/26 04:21:17;;;;;;;10.25;7.93;;;27.30;78.50;;;;;;5008864;28;20535;-61
2023/06/26 04:23:43;;;;;;;9.82;8.23;;;27.30;78.10;;;;;;5009302;28;20129;-63
2023/06/26 04:26:09;;;;;;;8.90;7.07;;;27.30;78.20;;;;;;5004612;28;20105;-61
2023/06/26 04:28:35;;;;;;;9.63;7.45;;;27.30;78.00;;;;;;5008486;28;20057;-62
2023/06/26 04:31:01;;;;;;;9.23;7.25;;;27.40;78.10;;;;;;5008496;28;20034;-62
2023/06/26 04:33:27;;;;;;;8.88;7.50;;;27.50;78.20;;;;;;5007825;28;20046;-67
2023/06/26 04:35:53;;;;;;;9.77;7.70;;;27.50;78.20;;;;;;5008784;28;20038;-66
2023/06/26 04:38:19;;;;;;;9.10;7.15;;;27.40;78.10;;;;;;5000961;28;20053;-67
2023/06/26 04:40:45;;;;;;;8.68;7.30;;;27.30;77.90;;;;;;5012702;28;20037;-67
2023/06/26 04:43:11;;;;;;;8.07;7.28;;;27.60;78.10;;;;;;5009928;28;20455;-67
2023/06/26 04:45:37;;;;;;;8.57;7.10;;;27.30;77.80;;;;;;5010650;28;20096;-67
2023/06/26 04:48:03;;;;;;;8.57;7.18;;;27.60;77.90;;;;;;5008220;28;20041;-65
2023/06/26 04:50:30;;;;;;;7.78;6.75;;;27.40;77.50;;;;;;5012480;28;20416;-64
2023/06/26 04:52:56;;;;;;;9.38;7.32;;;27.40;78.00;;;;;;5009506;28;20064;-67
2023/06/26 04:55:24;;;;;;;9.32;7.18;;;27.70;78.00;;;;;;5002135;28;20046;-60
2023/06/26 04:57:50;;;;;;;8.95;6.90;;;27.30;77.70;;;;;;5007679;28;20111;-66
2023/06/26 05:00:16;;;;;;;8.85;7.03;;;27.50;77.60;;;;;;5012666;28;20046;-66
2023/06/26 05:02:41;;;;;;;10.35;7.40;;;27.70;77.50;;;;;;5011641;28;20115;-67
2023/06/26 05:05:07;;;;;;;8.30;7.00;;;27.80;77.80;;;;;;5010514;28;20038;-62
2023/06/26 05:07:33;;;;;;;9.35;7.07;;;27.70;77.50;;;;;;5008684;28;20042;-60
2023/06/26 05:09:59;;;;;;;8.98;7.22;;;27.90;77.70;;;;;;5010840;28;20398;-64
2023/06/26 05:12:25;;;;;;;7.63;6.68;;;28.00;77.80;;;;;;5003162;28;20057;-67
2023/06/26 05:14:50;;;;;;;9.30;6.82;;;27.90;77.50;;;;;;5010642;28;20042;-67
2023/06/26 05:17:16;;;;;;;10.32;7.22;;;28.20;77.60;;;;;;5007702;28;20038;-67
2023/06/26 05:19:42;;;;;;;8.43;6.97;;;27.90;77.30;;;;;;5010653;28;20045;-67
2023/06/26 05:22:08;;;;;;;9.63;7.38;;;28.10;77.20;;;;;;5008400;28;20443;-67
2023/06/26 05:24:37;;;;;;;11.00;7.97;;;28.40;76.80;;;;;;5010623;28;20491;-60
2023/06/26 05:27:03;;;;;;;11.60;8.27;;;28.30;77.30;;;;;;5008907;28;20108;-60
2023/06/26 05:29:31;;;;;;;11.75;8.85;;;28.30;76.70;;;;;;5008070;28;20038;-60
2023/06/26 05:31:57;;;;;;;11.20;8.32;;;28.30;77.00;;;;;;5015554;28;20085;-64
2023/06/26 05:34:23;;;;;;;10.05;7.65;;;28.10;77.00;;;;;;5014507;28;20085;-61
2023/06/26 05:36:52;;;;;;;11.35;8.40;;;27.90;77.00;;;;;;5014615;28;20400;-65
2023/06/26 05:39:18;;;;;;;10.32;7.43;;;28.20;76.20;;;;;;5010788;28;20041;-64
2023/06/26 05:41:45;;;;;;;10.20;7.57;;;28.10;77.10;;;;;;4996040;28;20042;-65
2023/06/26 05:44:11;;;;;;;10.30;7.63;;;28.00;77.30;;;;;;5010190;28;20053;-67
2023/06/26 05:46:36;;;;;;;13.90;7.95;;;27.90;77.70;;;;;;5003321;28;20049;-65
2023/06/26 05:49:02;;;;;;;12.13;7.10;;;28.00;77.70;;;;;;5010114;28;20038;-65
2023/06/26 05:51:29;;;;;;;9.43;6.80;;;28.20;77.90;;;;;;5012904;28;20146;-67
2023/06/26 05:53:55;;;;;;;10.07;6.63;;;28.20;77.40;;;;;;5006558;28;20066;-65
2023/06/26 05:56:21;;;;;;;10.73;7.80;;;28.40;77.60;;;;;;5011893;28;20038;-65
2023/06/26 05:58:47;;;;;;;13.80;8.30;;;28.30;77.60;;;;;;5012612;28;20133;-65
2023/06/26 06:01:12;;;;;;;13.90;8.32;;;28.20;77.60;;;;;;5011268;28;20376;-60
2023/06/26 06:03:39;;;;;;;15.82;8.75;;;28.50;77.80;;;;;;5006295;28;20044;-61
2023/06/26 06:06:05;;;;;;;13.88;8.35;;;28.10;77.50;;;;;;5013921;28;20057;-61
2023/06/26 06:08:31;;;;;;;16.30;8.40;;;28.20;77.80;;;;;;5014350;28;20494;-65
2023/06/26 06:10:56;;;;;;;14.55;8.15;;;28.20;78.00;;;;;;5004375;28;20046;-66
2023/06/26 06:13:22;;;;;;;12.88;7.80;;;28.00;78.10;;;;;;5008150;28;20144;-60
2023/06/26 06:15:48;;;;;;;12.43;7.35;;;27.90;78.20;;;;;;5012626;28;20050;-65
2023/06/26 06:18:14;;;;;;;13.57;7.78;;;27.90;78.70;;;;;;5014015;28;20453;-62
2023/06/26 06:20:40;;;;;;;13.75;7.57;;;27.70;78.50;;;;;;5010071;28;20125;-60
2023/06/26 06:23:06;;;;;;;14.98;8.05;;;27.50;78.60;;;;;;5013978;28;20388;-60
2023/06/26 06:25:31;;;;;;;35.83;9.85;;;27.50;79.00;;;;;;5010964;28;20085;-60
2023/06/26 06:27:57;;;;;;;21.33;8.23;;;27.40;79.00;;;;;;5013431;28;20054;-60
2023/06/26 06:30:23;;;;;;;16.02;7.80;;;27.40;79.20;;;;;;5011386;28;20048;-61
2023/06/26 06:32:52;;;;;;;16.33;7.30;;;27.40;79.30;;;;;;5007761;28;20042;-61
2023/06/26 06:35:18;;;;;;;18.33;7.28;;;27.30;79.60;;;;;;4994838;28;20082;-67
2023/06/26 06:37:44;;;;;;;11.65;6.28;;;27.30;79.70;;;;;;4995577;28;20054;-62
2023/06/26 06:40:11;;;;;;;13.02;5.50;;;27.20;79.70;;;;;;5009001;28;20049;-60
2023/06/26 06:42:37;;;;;;;10.75;5.15;;;27.10;79.20;;;;;;5012386;28;20053;-61
2023/06/26 06:45:03;;;;;;;11.57;5.07;;;27.10;79.60;;;;;;5007980;28;20555;-67
2023/06/26 06:47:29;;;;;;;11.35;5.30;;;27.20;79.60;;;;;;5011436;28;20045;-66
2023/06/26 06:49:55;;;;;;;11.43;5.18;;;27.10;79.80;;;;;;5012982;28;20045;-67
2023/06/26 06:52:21;;;;;;;13.32;5.32;;;27.00;79.60;;;;;;5011696;28;20057;-67
2023/06/26 06:54:53;;;;;;;12.27;5.13;;;27.30;79.70;;;;;;5002917;28;20041;-61
2023/06/26 06:57:20;;;;;;;13.15;4.57;;;27.40;80.40;;;;;;5003336;28;20049;-60
2023/06/26 06:59:47;;;;;;;9.70;3.92;;;27.40;79.80;;;;;;5010208;28;20049;-63
2023/06/26 07:02:13;;;;;;;12.63;4.35;;;27.50;79.50;;;;;;5009897;28;20446;-60
2023/06/26 07:04:39;;;;;;;13.68;4.78;;;27.30;79.10;;;;;;5013191;28;20133;-63
2023/06/26 07:07:05;;;;;;;10.32;4.35;;;27.70;79.20;;;;;;5014114;28;20200;-61
2023/06/26 07:09:31;;;;;;;8.52;4.10;;;27.70;78.80;;;;;;5013257;28;20045;-67
2023/06/26 07:11:57;;;;;;;10.18;3.63;;;27.60;78.60;;;;;;5004468;28;20047;-66
2023/06/26 07:14:23;;;;;;;9.52;4.03;;;27.40;78.50;;;;;;5007891;28;20048;-61
2023/06/26 07:16:49;;;;;;;10.60;3.72;;;27.70;78.70;;;;;;5033796;28;20042;-61
2023/06/26 07:19:15;;;;;;;7.80;3.35;;;27.50;78.50;;;;;;5014538;28;20920;-61
2023/06/26 07:21:42;;;;;;;10.43;3.83;;;27.50;78.40;;;;;;5012863;28;20045;-62
2023/06/26 07:24:08;;;;;;;8.38;3.22;;;27.60;78.60;;;;;;5013824;28;20115;-63
2023/06/26 07:26:33;;;;;;;8.05;2.97;;;27.70;78.10;;;;;;5013655;28;20046;-64
2023/06/26 07:28:59;;;;;;;7.55;3.10;;;27.50;77.70;;;;;;5005042;28;20050;-65
2023/06/26 07:31:25;;;;;;;8.70;3.10;;;27.70;77.80;;;;;;5007416;28;20097;-64
2023/06/26 07:33:51;;;;;;;8.43;3.25;;;27.70;77.60;;;;;;5012687;28;20065;-67
2023/06/26 07:36:16;;;;;;;9.38;3.50;;;27.60;77.40;;;;;;5012408;28;20056;-67
2023/06/26 07:38:42;;;;;;;9.55;3.88;;;27.70;77.20;;;;;;5012663;28;20078;-60
2023/06/26 07:41:08;;;;;;;7.75;3.22;;;28.00;77.60;;;;;;5012743;28;20103;-61
2023/06/26 07:43:34;;;;;;;8.73;3.10;;;28.10;77.00;;;;;;5010779;28;20041;-67
2023/06/26 07:46:00;;;;;;;9.20;3.15;;;27.90;76.50;;;;;;5011696;28;20038;-67
2023/06/26 07:48:26;;;;;;;7.72;3.05;;;27.80;76.20;;;;;;4997365;28;20083;-68
2023/06/26 07:50:51;;;;;;;9.80;2.78;;;28.10;76.10;;;;;;4993302;28;20436;-63
2023/06/26 07:53:17;;;;;;;10.02;3.35;;;28.10;75.70;;;;;;5004691;28;20133;-66
2023/06/26 07:55:43;;;;;;;10.20;3.00;;;28.00;75.60;;;;;;5013190;28;20045;-65
2023/06/26 07:58:09;;;;;;;6.97;2.63;;;28.30;75.70;;;;;;5012424;28;20558;-66
2023/06/26 08:00:35;;;;;;;6.85;3.10;;;28.20;75.50;;;;;;4997463;28;20103;-67
2023/06/26 08:03:01;;;;;;;9.75;2.78;;;28.50;75.30;;;;;;5011643;28;20125;-61
2023/06/26 08:05:27;;;;;;;9.43;2.90;;;28.50;75.10;;;;;;5012906;28;20809;-66
2023/06/26 08:07:52;;;;;;;9.82;2.90;;;28.70;74.70;;;;;;5011111;28;20053;-66
2023/06/26 08:10:18;;;;;;;7.75;2.30;;;28.80;74.80;;;;;;5012276;28;20049;-61
2023/06/26 08:12:45;;;;;;;10.85;2.72;;;28.50;74.40;;;;;;5001180;28;20077;-69
2023/06/26 08:15:11;;;;;;;9.40;2.90;;;28.50;74.50;;;;;;5013070;28;20049;-69
2023/06/26 08:17:37;;;;;;;9.07;2.63;;;28.30;74.10;;;;;;5012658;28;20161;-69
2023/06/26 08:20:03;;;;;;;6.00;2.38;;;28.90;74.10;;;;;;5010566;28;20150;-68
2023/06/26 08:22:29;;;;;;;11.13;2.80;;;28.80;73.50;;;;;;5010520;28;20117;-68
2023/06/26 08:24:55;;;;;;;7.47;2.38;;;28.70;73.40;;;;;;5012687;28;20126;-71
2023/06/26 08:27:21;;;;;;;5.70;2.10;;;28.60;73.30;;;;;;5006182;28;20085;-70
2023/06/26 08:29:47;;;;;;;8.00;2.60;;;28.90;73.30;;;;;;5004416;28;20046;-70
2023/06/26 08:32:12;;;;;;;8.32;2.30;;;28.60;73.00;;;;;;5012395;28;20128;-69
2023/06/26 08:34:38;;;;;;;6.63;2.33;;;28.70;72.90;;;;;;5009626;28;20139;-70
2023/06/26 08:37:04;;;;;;;7.63;2.30;;;28.80;72.80;;;;;;5009487;28;20054;-62
2023/06/26 08:39:30;;;;;;;6.88;2.30;;;28.80;72.60;;;;;;5010498;28;20038;-69
2023/06/26 08:41:56;;;;;;;5.38;2.03;;;28.50;72.50;;;;;;4997548;28;20079;-64
2023/06/26 08:44:24;;;;;;;5.18;1.90;;;28.80;72.60;;;;;;5005072;28;20261;-68
2023/06/26 08:46:51;;;;;;;10.85;2.90;;;28.70;72.30;;;;;;5012659;28;20069;-69
2023/06/26 08:49:46;;;;;;;5.43;2.15;;;28.50;72.60;;;;;;5012471;28;20567;-68
2023/06/26 08:52:28;;;;;;;9.38;2.50;;;28.40;71.00;;;;;;5005490;28;20464;-69
2023/06/26 08:54:58;;;;;;;5.50;2.00;;;28.40;72.90;;;;;;5011050;28;20808;-67
2023/06/26 08:57:25;;;;;;;5.30;1.83;;;28.60;72.50;;;;;;5012670;28;20061;-67
2023/06/26 08:59:51;;;;;;;6.13;2.35;;;28.50;72.60;;;;;;5004109;28;20049;-67
2023/06/26 09:02:16;;;;;;;6.85;2.13;;;28.20;72.00;;;;;;5004335;28;20446;-67
2023/06/26 09:04:42;;;;;;;7.43;2.22;;;28.60;72.30;;;;;;5011900;28;20050;-67
2023/06/26 09:07:08;;;;;;;5.20;2.00;;;28.30;71.90;;;;;;5015960;28;20048;-66
2023/06/26 09:09:34;;;;;;;8.73;2.10;;;28.40;72.20;;;;;;5008227;28;20058;-67
2023/06/26 09:12:02;;;;;;;6.85;2.10;;;28.60;72.10;;;;;;5015734;28;20038;-68
2023/06/26 09:14:28;;;;;;;4.78;1.90;;;28.60;72.60;;;;;;5016094;28;20089;-67
2023/06/26 09:16:54;;;;;;;3.78;1.73;;;28.50;72.50;;;;;;5013010;28;20096;-60
2023/06/26 09:19:20;;;;;;;6.40;2.47;;;28.50;72.20;;;;;;5016185;28;20089;-68
2023/06/26 09:21:46;;;;;;;4.95;1.92;;;28.40;72.30;;;;;;5016093;28;20491;-63
2023/06/26 09:24:12;;;;;;;6.30;1.98;;;28.40;72.60;;;;;;4998050;28;20431;-60
2023/06/26 09:26:38;;;;;;;5.05;1.77;;;28.50;72.60;;;;;;5005685;28;20045;-65
2023/06/26 09:29:05;;;;;;;5.50;2.03;;;28.40;73.40;;;;;;5009388;28;20054;-64
2023/06/26 09:31:31;;;;;;;4.53;1.90;;;28.70;73.00;;;;;;5012350;28;20050;-61
2023/06/26 09:34:00;;;;;;;6.00;2.28;;;28.50;73.00;;;;;;5014322;28;20081;-59
2023/06/26 09:36:32;;;;;;;6.22;2.13;;;28.30;72.70;;;;;;5013976;28;20046;-64
2023/06/26 09:39:08;;;;;;;;;;;28.40;72.90;;;;;;5016202;28;20112;-60
2023/06/26 09:41:38;;;;;;;6.22;2.28;;;28.50;71.70;;;;;;5014862;28;20389;-69
2023/06/26 09:44:05;;;;;;;6.00;2.20;;;28.60;72.80;;;;;;5014479;28;20053;-69
2023/06/26 09:46:31;;;;;;;5.03;2.00;;;28.70;71.20;;;;;;5012094;28;20038;-70
2023/06/26 09:49:06;;;;;;;7.45;2.15;;;28.50;71.30;;;;;;5013395;28;20049;-67
2023/06/26 09:51:32;;;;;;;6.03;2.35;;;28.70;72.60;;;;;;5014776;28;20054;-68
2023/06/26 09:53:59;;;;;;;7.22;2.47;;;28.60;72.30;;;;;;5015156;28;20442;-68
2023/06/26 09:56:25;;;;;;;5.85;2.38;;;28.50;72.10;;;;;;5013454;28;20172;-68
2023/06/26 09:58:51;;;;;;;4.95;2.13;;;28.40;71.80;;;;;;5013923;28;20120;-66
2023/06/26 10:01:18;;;;;;;4.93;1.85;;;28.50;71.80;;;;;;4990328;28;20053;-68
2023/06/26 10:03:44;;;;;;;8.52;2.60;;;28.50;72.10;;;;;;5007426;28;20054;-68
2023/06/26 10:06:10;;;;;;;5.15;1.98;;;28.50;71.90;;;;;;5003147;28;20037;-68
2023/06/26 10:08:36;;;;;;;4.65;2.10;;;28.60;72.10;;;;;;5013939;28;20072;-69
2023/06/26 10:11:01;;;;;;;6.97;2.35;;;28.70;72.40;;;;;;5013724;28;20499;-68
2023/06/26 10:13:31;;;;;;;6.03;2.50;;;28.50;72.00;;;;;;5013636;28;20050;-68
2023/06/26 10:15:57;;;;;;;6.60;2.67;;;28.70;72.40;;;;;;5011513;28;20042;-69
2023/06/26 10:18:24;;;;;;;6.28;2.60;;;28.70;72.30;;;;;;4997509;28;20077;-69
2023/06/26 10:20:50;;;;;;;4.97;2.10;;;28.60;72.10;;;;;;4993949;28;20512;-68
2023/06/26 10:23:15;;;;;;;5.63;2.20;;;28.70;71.80;;;;;;4994223;28;20039;-65
2023/06/26 10:25:42;;;;;;;6.20;2.50;;;28.60;71.80;;;;;;4995278;28;20088;-68
2023/06/26 10:28:08;;;;;;;4.80;2.22;;;28.50;71.80;;;;;;5003326;28;20085;-60
2023/06/26 10:30:35;;;;;;;5.13;2.50;;;28.40;71.90;;;;;;5013602;28;20471;-62
2023/06/26 10:33:02;;;;;;;7.13;2.63;;;28.30;71.80;;;;;;5008755;28;20048;-68
2023/06/26 10:35:27;;;;;;;6.15;2.40;;;28.60;72.00;;;;;;4982629;28;20046;-69
2023/06/26 10:37:59;;;;;;;5.10;2.08;;;28.50;71.80;;;;;;5010205;28;20496;-69
2023/06/26 10:40:26;;;;;;;6.45;2.30;;;28.80;72.20;;;;;;5009135;28;20120;-60
2023/06/26 10:42:51;;;;;;;6.75;2.53;;;28.60;72.00;;;;;;4997631;28;20038;-67
2023/06/26 10:45:21;;;;;;;4.90;2.20;;;28.30;71.60;;;;;;4993384;28;20435;-68
2023/06/26 10:47:48;;;;;;;7.88;2.60;;;28.30;71.90;;;;;;5004775;28;20117;-67
2023/06/26 10:50:23;;;;;;;7.45;2.20;;;28.50;72.10;;;;;;5012322;28;20049;-60
2023/06/26 10:53:11;;;;;;;5.38;2.40;;;28.60;71.00;;;;;;5001886;28;20050;-68
2023/06/26 10:55:37;;;;;;;6.47;2.60;;;28.80;71.10;;;;;;5013981;28;20513;-68
2023/06/26 10:58:03;;;;;;;6.85;2.28;;;28.70;72.20;;;;;;5013314;28;20435;-68
2023/06/26 11:00:29;;;;;;;5.47;2.40;;;28.70;71.90;;;;;;5001463;28;20054;-61
2023/06/26 11:02:55;;;;;;;5.75;2.20;;;28.60;71.80;;;;;;4999750;28;20076;-68
2023/06/26 11:05:26;;;;;;;5.20;2.80;;;28.50;71.60;;;;;;5014180;28;20045;-68
2023/06/26 11:08:08;;;;;;;6.40;2.60;;;28.50;72.00;;;;;;5006371;28;20042;-68
2023/06/26 11:10:52;;;;;;;;;;;28.50;72.20;;;;;;5011244;28;20049;-66
2023/06/26 11:13:21;;;;;;;6.85;2.65;;;28.60;70.60;;;;;;5011034;28;19922;-65
2023/06/26 11:15:48;;;;;;;5.15;2.40;;;28.70;71.40;;;;;;5012619;28;20045;-69
2023/06/26 11:18:14;;;;;;;4.85;2.33;;;28.90;71.80;;;;;;4992634;28;20049;-68
2023/06/26 11:20:40;;;;;;;5.25;2.38;;;28.70;71.20;;;;;;5012609;28;20041;-68
2023/06/26 11:23:08;;;;;;;6.07;2.45;;;28.80;71.40;;;;;;5014625;28;20080;-67
2023/06/26 11:25:37;;;;;;;4.60;2.40;;;28.90;71.50;;;;;;5002438;28;20050;-68
2023/06/26 11:28:04;;;;;;;7.63;2.47;;;28.80;71.30;;;;;;4996061;28;20057;-66
2023/06/26 11:30:30;;;;;;;5.25;2.85;;;28.70;71.10;;;;;;5013416;28;20109;-65
2023/06/26 11:33:06;;;;;;;4.82;2.40;;;28.70;71.00;;;;;;5012163;28;20053;-68
2023/06/26 11:35:32;;;;;;;5.70;2.55;;;28.50;71.30;;;;;;5012549;28;20045;-65
2023/06/26 11:38:04;;;;;;;5.30;2.67;;;28.80;70.90;;;;;;5011950;28;20069;-66
2023/06/26 11:40:33;;;;;;;6.25;2.72;;;28.90;71.50;;;;;;5012670;28;20046;-66
2023/06/26 11:43:00;;;;;;;14.02;5.10;;;28.80;71.50;;;;;;5010956;28;20037;-66
2023/06/26 11:45:28;;;;;;;19.75;4.82;;;28.70;71.30;;;;;;5011096;28;20050;-71
2023/06/26 11:47:56;;;;;;;17.90;4.85;;;28.60;70.90;;;;;;5011272;28;20080;-68
2023/06/26 11:50:22;;;;;;;8.65;3.63;;;28.80;71.40;;;;;;5012022;28;20496;-72
2023/06/26 11:52:57;;;;;;;9.75;3.97;;;28.70;70.90;;;;;;5013066;28;20054;-73
2023/06/26 11:55:26;;;;;;;7.90;3.42;;;28.60;71.40;;;;;;5010777;28;20077;-70
2023/06/26 11:57:55;;;;;;;8.52;3.17;;;28.70;70.90;;;;;;5012835;28;20049;-69
2023/06/26 12:00:22;;;;;;;7.35;3.53;;;28.60;71.20;;;;;;4999380;28;20133;-65
2023/06/26 12:02:49;;;;;;;9.27;4.00;;;28.90;70.70;;;;;;5007160;28;20101;-72
2023/06/26 12:05:15;;;;;;;8.70;3.67;;;28.60;70.80;;;;;;5012114;28;20518;-68
2023/06/26 12:07:47;;;;;;;6.68;3.10;;;28.50;70.50;;;;;;5013151;28;20053;-65
2023/06/26 12:10:14;;;;;;;7.38;3.40;;;28.80;69.30;;;;;;5010328;28;20431;-72
2023/06/26 12:12:40;;;;;;;8.40;3.10;;;28.90;70.70;;;;;;4984231;28;20050;-67
2023/06/26 12:15:07;;;;;;;6.57;2.97;;;29.00;70.50;;;;;;4975786;28;20108;-71
2023/06/26 12:17:33;;;;;;;8.50;3.20;;;28.80;70.00;;;;;;5007609;28;20389;-66
2023/06/26 12:19:59;;;;;;;9.43;3.17;;;29.00;70.50;;;;;;4992091;28;20100;-72
2023/06/26 12:22:25;;;;;;;8.27;3.20;;;28.70;70.20;;;;;;5012746;28;20077;-66
2023/06/26 12:24:50;;;;;;;7.32;2.80;;;29.00;70.40;;;;;;5005124;28;20076;-73
2023/06/26 12:27:18;;;;;;;5.88;2.78;;;28.90;70.30;;;;;;5011159;28;20038;-65
2023/06/26 12:29:53;;;;;;;7.10;2.63;;;28.70;70.40;;;;;;4994687;28;20057;-61
2023/06/26 12:32:19;;;;;;;5.50;2.65;;;29.00;70.60;;;;;;5011844;28;20053;-62
2023/06/26 12:34:48;;;;;;;6.25;2.63;;;29.20;70.10;;;;;;5008638;28;20045;-70
2023/06/26 12:37:14;;;;;;;9.35;2.65;;;29.10;70.40;;;;;;5011598;28;20066;-66
2023/06/26 12:39:57;;;;;;;7.03;2.75;;;29.30;70.10;;;;;;5013272;28;20511;-66
2023/06/26 12:42:24;;;;;;;8.77;2.85;;;29.00;70.40;;;;;;5015652;28;20049;-72
2023/06/26 12:44:50;;;;;;;6.85;2.70;;;28.90;70.00;;;;;;5015165;28;20034;-68